Time;durP1;ratioP1;P1;durP2;ratioP2;P2;SDS_P1;SDS_P2;PMS_P1;PMS_P2;Temp;Humidity;BMP_temperature;BMP_pressure;BME280_temperature;BME280_humidity;BME280_pressure;Samples;Min_cycle;Max_cycle;Signal;HPM_P1;HPM_P2
2024/01/26 00:01:41;;;;;;;52.35;27.30;;;;;;;5.82;66.45;101699.56;5102746;28;20528;-77
2024/01/26 00:04:36;;;;;;;56.55;33.88;;;;;;;5.67;67.48;101704.88;5100459;28;20055;-76
2024/01/26 00:07:31;;;;;;;48.05;26.08;;;;;;;5.37;68.38;101699.22;5098997;28;20047;-80
2024/01/26 00:10:25;;;;;;;44.67;25.20;;;;;;;5.47;67.91;101702.00;5101930;28;20416;-77
2024/01/26 00:13:20;;;;;;;57.55;32.20;;;;;;;5.41;68.37;101694.94;5100370;28;20051;-77
2024/01/26 00:16:12;;;;;;;51.75;33.30;;;;;;;5.69;67.27;101697.31;5104393;28;20047;-78
2024/01/26 00:19:01;;;;;;;55.75;33.50;;;;;;;5.63;66.52;101695.66;5101772;28;20050;-78
2024/01/26 00:21:56;;;;;;;55.35;32.33;;;;;;;5.66;66.83;101692.44;5098670;28;20527;-78
2024/01/26 00:24:50;;;;;;;38.78;22.15;;;;;;;5.54;68.32;101683.69;5101402;28;20043;-78
2024/01/26 00:27:37;;;;;;;58.10;31.90;;;;;;;5.56;68.07;101676.16;5101214;28;20070;-77
2024/01/26 00:30:29;;;;;;;67.72;36.03;;;;;;;5.62;68.79;101667.06;5100620;28;20047;-77
2024/01/26 00:33:24;;;;;;;65.20;35.60;;;;;;;5.38;70.01;101673.88;5102862;28;20051;-78
2024/01/26 00:36:24;;;;;;;41.88;24.38;;;;;;;5.39;69.97;101678.19;5098265;28;20047;-76
2024/01/26 00:39:18;;;;;;;55.95;32.90;;;;;;;5.37;70.29;101681.16;5107257;28;20444;-76
2024/01/26 00:42:13;;;;;;;62.38;33.65;;;;;;;5.43;70.01;101688.22;5105597;28;20043;-76
2024/01/26 00:45:07;;;;;;;57.05;32.95;;;;;;;5.50;70.11;101690.69;5108867;28;20054;-77
2024/01/26 00:48:02;;;;;;;47.57;25.73;;;;;;;5.42;70.55;101696.56;5107860;28;20047;-78
2024/01/26 00:50:56;;;;;;;41.42;24.38;;;;;;;5.68;69.80;101689.50;5104448;28;20044;-76
2024/01/26 00:53:51;;;;;;;45.40;26.20;;;;;;;5.50;70.56;101685.28;5108230;28;20058;-80
2024/01/26 00:56:44;;;;;;;53.58;32.00;;;;;;;5.44;70.74;101684.44;5103029;28;20312;-77
2024/01/26 00:59:38;;;;;;;43.85;25.08;;;;;;;5.53;70.10;101682.09;5100981;28;20051;-77
2024/01/26 01:02:33;;;;;;;53.38;30.98;;;;;;;5.80;69.24;101685.53;5104298;28;20047;-78
2024/01/26 01:05:27;;;;;;;59.83;32.00;;;;;;;6.01;67.43;101703.50;5100638;28;20043;-77
2024/01/26 01:08:22;;;;;;;46.45;25.65;;;;;;;5.47;68.68;101704.69;5104275;28;20051;-77
2024/01/26 01:11:17;;;;;;;47.77;27.97;;;;;;;5.20;68.58;101706.59;5100029;28;20043;-76
2024/01/26 01:14:09;;;;;;;50.10;31.30;;;;;;;5.33;69.75;101700.81;5100307;28;20523;-76
2024/01/26 01:17:03;;;;;;;56.13;31.15;;;;;;;5.78;68.20;101713.84;5101060;28;20797;-77
2024/01/26 01:19:53;;;;;;;50.50;28.07;;;;;;;5.74;66.67;101708.13;5090767;28;20043;-76
2024/01/26 01:22:48;;;;;;;59.63;35.30;;;;;;;5.57;66.21;101700.19;5103754;28;20336;-77
2024/01/26 01:25:42;;;;;;;50.63;30.83;;;;;;;5.70;65.84;101717.00;5101585;28;20523;-77
2024/01/26 01:28:36;;;;;;;55.13;31.65;;;;;;;5.71;65.07;101702.44;5099749;28;20063;-76
2024/01/26 01:31:31;;;;;;;56.22;31.08;;;;;;;5.26;66.24;101700.19;5102829;28;20043;-75
2024/01/26 01:34:26;;;;;;;60.53;32.37;;;;;;;4.88;67.52;101715.41;5101672;28;20047;-76
2024/01/26 01:37:21;;;;;;;37.60;24.38;;;;;;;4.72;68.24;101721.72;5102294;28;20047;-77
2024/01/26 01:40:14;;;;;;;46.22;23.70;;;;;;;4.81;69.17;101725.59;5102916;28;20043;-79
2024/01/26 01:43:08;;;;;;;55.25;32.05;;;;;;;4.76;70.91;101722.03;5101224;28;20039;-76
2024/01/26 01:46:03;;;;;;;44.03;24.10;;;;;;;5.08;70.13;101714.81;5106322;28;20417;-79
2024/01/26 01:48:58;;;;;;;42.50;26.30;;;;;;;5.01;68.86;101704.25;5107024;28;20058;-76
2024/01/26 01:51:55;;;;;;;46.53;26.73;;;;;;;5.41;68.45;101700.31;5110545;28;20043;-77
2024/01/26 01:54:49;;;;;;;56.95;32.33;;;;;;;5.54;67.13;101708.78;5106471;28;20571;-77
2024/01/26 01:57:44;;;;;;;58.75;32.20;;;;;;;5.65;66.52;101711.56;5104103;28;20071;-76
2024/01/26 02:00:36;;;;;;;39.88;24.67;;;;;;;4.80;68.96;101698.91;5106702;28;20043;-77
2024/01/26 02:03:33;;;;;;;57.80;33.70;;;;;;;5.39;67.84;101708.66;5104929;28;20047;-75
2024/01/26 02:06:27;;;;;;;54.35;32.10;;;;;;;4.94;68.49;101709.03;5106633;28;20043;-80
2024/01/26 02:09:22;;;;;;;45.80;26.42;;;;;;;4.68;68.89;101710.63;5104143;28;20047;-79
2024/01/26 02:12:14;;;;;;;62.65;34.63;;;;;;;5.06;68.12;101723.19;5103227;28;20051;-76
2024/01/26 02:15:07;;;;;;;54.38;32.78;;;;;;;5.23;67.51;101717.69;5107472;28;20043;-77
2024/01/26 02:18:02;;;;;;;70.10;32.00;;;;;;;4.61;69.59;101722.66;5104884;28;20047;-77
2024/01/26 02:20:57;;;;;;;39.75;25.00;;;;;;;4.50;70.16;101740.56;5109137;28;20066;-76
2024/01/26 02:23:51;;;;;;;41.15;22.90;;;;;;;4.95;69.56;101728.72;5107328;28;20051;-78
2024/01/26 02:26:43;;;;;;;49.85;30.00;;;;;;;4.67;70.67;101729.75;5101931;28;20055;-79
2024/01/26 02:29:38;;;;;;;53.65;31.35;;;;;;;4.73;69.19;101721.44;5107651;28;20085;-79
2024/01/26 02:32:32;;;;;;;42.67;25.57;;;;;;;4.65;69.49;101723.78;5103177;28;20412;-74
2024/01/26 02:35:22;;;;;;;51.65;31.30;;;;;;;4.56;69.76;101723.41;5099345;28;20063;-77
2024/01/26 02:38:17;;;;;;;56.42;31.83;;;;;;;4.59;69.97;101706.75;5105515;28;20051;-76
2024/01/26 02:41:11;;;;;;;46.30;27.20;;;;;;;4.56;71.03;101695.66;5104167;28;20522;-76
2024/01/26 02:44:06;;;;;;;39.10;23.57;;;;;;;4.58;70.62;101707.81;5110173;28;20058;-78
2024/01/26 02:47:01;;;;;;;52.55;30.23;;;;;;;4.74;69.16;101700.72;5103875;28;20265;-78
2024/01/26 02:49:53;;;;;;;45.30;24.80;;;;;;;5.03;68.58;101710.19;5104968;28;20174;-76
2024/01/26 02:52:48;;;;;;;55.78;30.85;;;;;;;4.85;68.53;101701.66;5106494;28;20047;-76
2024/01/26 02:55:40;;;;;;;52.40;29.95;;;;;;;4.76;68.65;101701.28;5101699;28;20047;-79
2024/01/26 02:58:34;;;;;;;55.50;30.15;;;;;;;4.84;68.79;101708.09;5104479;28;20093;-76
2024/01/26 03:01:27;;;;;;;45.22;25.63;;;;;;;4.41;69.61;101708.94;5105522;28;20039;-77
2024/01/26 03:04:21;;;;;;;48.05;31.00;;;;;;;4.38;70.33;101712.94;5102791;28;20062;-77
2024/01/26 03:07:16;;;;;;;53.85;31.67;;;;;;;4.49;70.26;101714.69;5103201;28;20046;-76
2024/01/26 03:10:09;;;;;;;40.63;25.15;;;;;;;4.52;70.60;101706.09;5103099;28;20051;-77
2024/01/26 03:13:03;;;;;;;53.05;31.60;;;;;;;4.68;70.27;101699.03;5106645;28;20042;-78
2024/01/26 03:15:58;;;;;;;41.90;24.87;;;;;;;4.76;70.18;101690.50;5105303;28;20067;-77
2024/01/26 03:18:53;;;;;;;41.00;24.25;;;;;;;4.72;69.32;101689.41;5104291;28;20046;-76
2024/01/26 03:21:48;;;;;;;36.65;22.30;;;;;;;4.79;69.82;101702.66;5106203;28;20062;-77
2024/01/26 03:24:40;;;;;;;53.05;27.83;;;;;;;4.56;70.98;101707.25;5104933;28;20055;-76
2024/01/26 03:27:32;;;;;;;54.72;28.40;;;;;;;4.66;71.08;101685.84;5103012;28;20043;-76
2024/01/26 03:30:26;;;;;;;50.58;30.00;;;;;;;4.71;71.31;101693.16;5106954;28;20321;-77
2024/01/26 03:33:21;;;;;;;47.80;29.13;;;;;;;4.93;70.62;101693.91;5104240;28;20063;-76
2024/01/26 03:36:14;;;;;;;53.72;30.85;;;;;;;5.23;68.58;101679.13;5105127;28;20048;-77
2024/01/26 03:39:09;;;;;;;49.47;28.67;;;;;;;5.24;68.87;101689.66;5103384;28;20515;-77
2024/01/26 03:42:04;;;;;;;38.42;21.55;;;;;;;4.97;69.48;101686.97;5107929;28;20043;-77
2024/01/26 03:44:58;;;;;;;39.43;24.13;;;;;;;4.84;69.85;101676.59;5106432;28;20055;-76
2024/01/26 03:47:53;;;;;;;51.17;30.17;;;;;;;4.93;69.29;101677.75;5100222;28;20051;-76
2024/01/26 03:50:48;;;;;;;39.42;21.75;;;;;;;4.52;70.35;101678.38;5107780;28;20055;-79
2024/01/26 03:53:42;;;;;;;48.55;25.20;;;;;;;4.28;71.33;101692.06;5104279;28;20047;-76
2024/01/26 03:56:37;;;;;;;48.55;30.45;;;;;;;4.10;72.43;101689.69;5098900;28;20047;-77
2024/01/26 03:59:32;;;;;;;37.03;23.13;;;;;;;4.44;71.15;101685.00;5102434;28;20051;-79
2024/01/26 04:02:26;;;;;;;54.35;31.95;;;;;;;4.59;71.38;101689.75;5098070;28;20063;-76
2024/01/26 04:05:21;;;;;;;49.85;29.95;;;;;;;4.75;71.41;101688.88;5103114;28;20043;-77
2024/01/26 04:08:13;;;;;;;53.28;29.73;;;;;;;4.63;71.75;101686.31;5101766;28;20050;-78
2024/01/26 04:11:07;;;;;;;35.15;20.58;;;;;;;4.74;71.56;101689.94;5103354;28;20047;-77
2024/01/26 04:14:00;;;;;;;41.75;23.33;;;;;;;4.76;70.85;101695.91;5106990;28;20047;-78
2024/01/26 04:16:54;;;;;;;50.67;28.55;;;;;;;5.14;69.59;101695.75;5104034;28;20602;-76
2024/01/26 04:19:47;;;;;;;46.83;23.43;;;;;;;4.97;70.12;101703.16;5106224;28;20047;-75
2024/01/26 04:22:42;;;;;;;50.35;27.38;;;;;;;5.08;70.05;101699.47;5104759;28;20051;-76
2024/01/26 04:25:37;;;;;;;42.88;25.33;;;;;;;5.11;70.10;101700.84;5102842;28;20068;-78
2024/01/26 04:28:31;;;;;;;41.50;21.30;;;;;;;4.95;70.60;101696.38;5105653;28;20051;-77
2024/01/26 04:31:26;;;;;;;44.53;23.65;;;;;;;5.08;70.33;101688.69;5103841;28;20511;-79
2024/01/26 04:34:21;;;;;;;35.70;22.70;;;;;;;5.21;68.61;101692.88;5105734;28;20047;-77
2024/01/26 04:37:15;;;;;;;36.40;22.88;;;;;;;4.86;70.14;101703.28;5100713;28;20297;-76
2024/01/26 04:40:10;;;;;;;46.20;19.45;;;;;;;4.52;70.51;101718.78;5098730;28;20063;-79
2024/01/26 04:43:05;;;;;;;51.05;29.33;;;;;;;4.55;70.89;101707.50;5107850;28;20063;-78
2024/01/26 04:45:59;;;;;;;50.40;31.23;;;;;;;4.76;70.47;101701.28;5105704;28;20046;-78
2024/01/26 04:48:57;;;;;;;38.53;24.07;;;;;;;4.87;70.15;101707.63;5109560;28;20448;-76
2024/01/26 04:51:51;;;;;;;54.42;30.55;;;;;;;5.18;70.22;101703.34;5100916;28;20047;-78
2024/01/26 04:54:46;;;;;;;41.17;23.37;;;;;;;5.20;69.51;101699.31;5098781;28;20066;-77
2024/01/26 04:57:44;;;;;;;55.13;30.52;;;;;;;4.53;71.19;101707.75;5102741;28;20293;-77
2024/01/26 05:00:39;;;;;;;42.00;23.60;;;;;;;5.03;70.43;101710.19;5101691;28;20424;-78
2024/01/26 05:03:33;;;;;;;42.47;23.85;;;;;;;4.82;70.14;101702.97;5103860;28;20044;-79
2024/01/26 05:06:28;;;;;;;42.57;24.60;;;;;;;4.61;71.44;101711.88;5102067;28;20043;-77
2024/01/26 05:09:23;;;;;;;54.22;29.40;;;;;;;5.09;70.14;101713.75;5103799;28;20284;-79
2024/01/26 05:12:20;;;;;;;52.25;30.38;;;;;;;4.56;71.04;101722.59;5102545;28;20055;-75
2024/01/26 05:15:15;;;;;;;39.28;23.55;;;;;;;4.71;70.54;101734.38;5100472;28;20043;-76
2024/01/26 05:18:10;;;;;;;40.67;23.90;;;;;;;4.93;69.80;101734.34;5101653;28;20047;-78
2024/01/26 05:21:04;;;;;;;45.30;27.23;;;;;;;4.90;70.82;101734.88;5106001;28;20516;-75
2024/01/26 05:23:59;;;;;;;60.10;33.55;;;;;;;4.87;70.93;101723.78;5098318;28;20269;-77
2024/01/26 05:26:54;;;;;;;56.38;33.45;;;;;;;5.05;70.74;101732.34;5107536;28;20043;-77
2024/01/26 05:29:49;;;;;;;43.30;24.17;;;;;;;4.97;70.41;101748.97;5106634;28;20051;-76
2024/01/26 05:32:43;;;;;;;41.93;24.17;;;;;;;4.61;69.67;101752.28;5106459;28;20043;-80
2024/01/26 05:35:38;;;;;;;61.40;34.80;;;;;;;4.48;71.43;101752.63;5106386;28;20059;-78
2024/01/26 05:38:33;;;;;;;44.03;25.15;;;;;;;4.84;69.92;101751.22;5103720;28;20063;-77
2024/01/26 05:41:27;;;;;;;50.00;31.27;;;;;;;5.05;69.32;101756.59;5104683;28;20047;-77
2024/01/26 05:44:21;;;;;;;49.35;30.65;;;;;;;5.21;68.51;101754.06;5096231;28;20055;-78
2024/01/26 05:47:16;;;;;;;38.03;24.77;;;;;;;5.25;67.18;101755.19;5103062;28;20035;-75
2024/01/26 05:50:11;;;;;;;48.90;25.37;;;;;;;5.04;67.74;101754.13;5107371;28;20051;-77
2024/01/26 05:53:03;;;;;;;46.15;24.52;;;;;;;4.94;67.99;101764.81;5105781;28;20273;-78
2024/01/26 05:55:58;;;;;;;52.72;30.38;;;;;;;4.90;68.30;101769.91;5107990;28;21774;-80
2024/01/26 05:58:52;;;;;;;50.03;30.65;;;;;;;4.94;67.74;101762.94;5104475;28;20428;-76
2024/01/26 06:01:47;;;;;;;37.80;24.17;;;;;;;4.46;69.25;101781.72;5109967;28;20043;-77
2024/01/26 06:04:41;;;;;;;40.40;24.73;;;;;;;4.79;68.74;101772.72;5108246;28;20050;-77
2024/01/26 06:07:34;;;;;;;50.17;29.70;;;;;;;4.87;67.19;101778.50;5103067;28;20043;-77
2024/01/26 06:10:21;;;;;;;58.25;33.60;;;;;;;4.67;70.93;101776.31;5104268;28;20059;-77
2024/01/26 06:13:15;;;;;;;63.58;36.80;;;;;;;4.71;71.07;101780.19;5098325;28;20054;-77
2024/01/26 06:16:10;;;;;;;45.45;26.25;;;;;;;4.80;71.28;101777.84;5096081;28;20047;-79
2024/01/26 06:19:04;;;;;;;50.25;24.92;;;;;;;4.41;73.64;101774.38;5098521;28;20043;-79
2024/01/26 06:21:57;;;;;;;50.58;27.83;;;;;;;4.39;74.67;101778.38;5095972;28;20078;-74
2024/01/26 06:24:52;;;;;;;57.35;31.48;;;;;;;4.62;72.75;101783.56;5098270;28;20067;-76
2024/01/26 06:27:44;;;;;;;57.60;33.13;;;;;;;4.63;73.00;101787.84;5093649;28;20043;-76
2024/01/26 06:30:38;;;;;;;61.92;35.47;;;;;;;4.80;72.14;101796.72;5083558;28;20051;-77
2024/01/26 06:33:33;;;;;;;56.50;33.63;;;;;;;4.80;70.41;101799.41;5092959;28;22143;-75
2024/01/26 06:36:27;;;;;;;49.67;26.88;;;;;;;4.20;73.30;101815.53;5090745;28;20574;-74
2024/01/26 06:39:22;;;;;;;53.25;33.95;;;;;;;4.23;72.94;101812.31;5093866;28;20043;-77
2024/01/26 06:42:21;;;;;;;58.97;35.95;;;;;;;3.83;75.02;101815.19;5097108;28;20035;-79
2024/01/26 06:45:14;;;;;;;63.63;35.25;;;;;;;3.89;75.15;101822.28;5091441;28;20043;-75
2024/01/26 06:48:14;;;;;;;62.40;34.95;;;;;;;3.53;76.34;101812.78;5096197;28;20042;-76
2024/01/26 06:51:08;;;;;;;63.10;36.35;;;;;;;2.91;78.76;101820.69;5097829;28;20055;-77
2024/01/26 06:54:03;;;;;;;60.13;37.47;;;;;;;2.64;79.61;101816.09;5101986;28;20086;-77
2024/01/26 06:56:57;;;;;;;63.30;34.10;;;;;;;2.71;78.99;101822.97;5091096;28;20335;-76
2024/01/26 06:59:52;;;;;;;69.60;38.92;;;;;;;2.20;80.76;101821.00;5099356;28;20059;-78
2024/01/26 07:02:46;;;;;;;68.97;37.45;;;;;;;2.04;81.99;101832.41;5102314;28;20417;-78
2024/01/26 07:05:38;;;;;;;59.58;31.13;;;;;;;2.24;81.22;101832.88;5100103;28;20043;-77
2024/01/26 07:08:33;;;;;;;97.47;42.72;;;;;;;2.45;81.16;101832.31;5103999;28;20527;-77
2024/01/26 07:11:25;;;;;;;68.28;38.08;;;;;;;2.50;80.29;101834.28;5102460;28;20500;-77
2024/01/26 07:14:19;;;;;;;75.20;40.75;;;;;;;2.61;80.03;101835.34;5098733;28;20050;-77
2024/01/26 07:17:19;;;;;;;79.78;42.88;;;;;;;2.57;80.12;101838.50;5098816;28;20047;-77
2024/01/26 07:20:13;;;;;;;74.03;42.33;;;;;;;2.76;79.46;101849.09;5097264;28;20047;-77
2024/01/26 07:23:16;;;;;;;53.95;32.25;;;;;;;2.77;78.96;101842.69;5101756;28;20516;-76
2024/01/26 07:26:11;;;;;;;78.70;44.25;;;;;;;2.84;79.77;101856.81;5099179;28;20520;-77
2024/01/26 07:29:06;;;;;;;66.53;35.37;;;;;;;2.98;78.79;101860.88;5095822;28;20047;-77
2024/01/26 07:32:00;;;;;;;76.65;43.30;;;;;;;3.12;79.05;101864.94;5097954;28;20289;-78
2024/01/26 07:34:55;;;;;;;72.05;43.67;;;;;;;3.18;78.48;101872.06;5086313;28;20043;-77
2024/01/26 07:37:49;;;;;;;86.50;43.63;;;;;;;3.35;77.98;101874.81;5093266;28;20051;-77
2024/01/26 07:40:44;;;;;;;71.70;41.17;;;;;;;3.55;77.00;101877.09;5097385;28;20043;-76
2024/01/26 07:43:38;;;;;;;67.43;39.92;;;;;;;3.86;76.14;101884.63;5094261;28;20051;-76
2024/01/26 07:46:33;;;;;;;42.22;27.20;;;;;;;3.99;74.65;101880.84;5096919;28;20031;-76
2024/01/26 07:49:28;;;;;;;50.55;26.73;;;;;;;4.20;73.42;101901.66;5091401;28;20043;-76
2024/01/26 07:52:22;;;;;;;49.40;28.77;;;;;;;3.90;74.32;101896.56;5094844;28;20039;-78
2024/01/26 07:55:17;;;;;;;70.00;35.65;;;;;;;3.95;73.39;101888.59;5092313;28;20047;-78
2024/01/26 07:58:11;;;;;;;71.63;37.95;;;;;;;4.16;73.44;101895.13;5095603;28;20039;-78
2024/01/26 08:01:06;;;;;;;55.00;32.03;;;;;;;4.29;72.99;101886.72;5097863;28;20047;-78
2024/01/26 08:03:58;;;;;;;60.40;36.72;;;;;;;4.48;72.74;101892.69;5089214;28;20312;-77
2024/01/26 08:06:50;;;;;;;71.65;38.58;;;;;;;4.08;73.63;101895.53;5091010;28;20048;-76
2024/01/26 08:09:45;;;;;;;64.65;39.53;;;;;;;3.50;76.15;101895.81;5093535;28;20055;-75
2024/01/26 08:12:40;;;;;;;66.25;39.17;;;;;;;3.66;76.02;101906.59;5092247;28;20431;-76
2024/01/26 08:15:34;;;;;;;67.03;39.72;;;;;;;4.07;74.33;101912.72;5092583;28;20039;-76
2024/01/26 08:18:29;;;;;;;63.45;38.58;;;;;;;3.85;75.42;101909.94;5088940;28;20039;-76
2024/01/26 08:21:23;;;;;;;66.97;41.63;;;;;;;3.83;75.43;101912.84;5088000;28;20051;-76
2024/01/26 08:24:19;;;;;;;67.32;40.85;;;;;;;3.73;76.22;101906.47;5091679;28;20043;-76
2024/01/26 08:27:14;;;;;;;62.05;32.15;;;;;;;3.50;78.13;101904.69;5092006;28;20035;-76
2024/01/26 08:30:09;;;;;;;63.42;35.22;;;;;;;3.32;79.48;101905.66;5086294;28;20047;-75
2024/01/26 08:33:04;;;;;;;79.85;45.15;;;;;;;3.40;79.82;101910.66;5088345;28;20043;-76
2024/01/26 08:35:59;;;;;;;68.55;38.05;;;;;;;3.78;78.82;101925.38;5096834;28;20039;-76
2024/01/26 08:38:54;;;;;;;93.28;51.50;;;;;;;3.92;78.92;101923.22;5091224;28;20043;-76
2024/01/26 08:41:46;;;;;;;67.47;40.00;;;;;;;4.04;78.89;101919.41;5092988;28;20063;-76
2024/01/26 08:44:36;;;;;;;83.18;51.65;;;;;;;4.17;78.76;101927.19;5096223;28;20047;-77
2024/01/26 08:47:30;;;;;;;82.32;51.42;;;;;;;4.32;78.99;101929.31;5092998;28;20039;-77
2024/01/26 08:50:25;;;;;;;72.87;40.83;;;;;;;4.38;79.17;101938.28;5092592;28;20500;-77
2024/01/26 08:53:19;;;;;;;99.38;56.13;;;;;;;4.40;78.89;101944.25;5094669;28;20059;-77
2024/01/26 08:56:14;;;;;;;97.38;56.47;;;;;;;5.02;76.87;101961.97;5089814;28;20035;-75
2024/01/26 08:59:06;;;;;;;82.10;42.83;;;;;;;5.41;75.60;101962.75;5096567;28;20508;-76
2024/01/26 09:02:01;;;;;;;86.90;49.78;;;;;;;5.62;75.09;101955.75;5094704;28;20055;-77
2024/01/26 09:04:56;;;;;;;68.95;39.05;;;;;;;5.69;74.66;101952.88;5089857;28;20047;-76
2024/01/26 09:07:51;;;;;;;72.97;42.60;;;;;;;6.07;73.41;101946.53;5088519;28;20063;-78
2024/01/26 09:10:45;;;;;;;62.20;39.10;;;;;;;6.16;73.41;101948.53;5092755;28;20397;-78
2024/01/26 09:13:39;;;;;;;78.55;46.65;;;;;;;6.45;72.98;101943.66;5094845;28;20034;-78
2024/01/26 09:16:34;;;;;;;80.15;46.03;;;;;;;6.48;73.04;101958.53;5091023;28;20515;-76
2024/01/26 09:19:29;;;;;;;58.30;34.63;;;;;;;6.69;73.02;101961.16;5093621;28;20047;-77
2024/01/26 09:22:24;;;;;;;54.80;34.43;;;;;;;6.70;72.88;101962.81;5088724;28;20043;-77
2024/01/26 09:25:19;;;;;;;71.22;43.35;;;;;;;6.91;73.03;101971.06;5092514;28;20292;-78
2024/01/26 09:28:11;;;;;;;46.30;28.90;;;;;;;7.06;73.14;101976.56;5093081;28;20043;-80
2024/01/26 09:31:03;;;;;;;76.50;41.28;;;;;;;7.30;72.48;101981.31;5071833;28;20404;-79
2024/01/26 09:33:58;;;;;;;65.35;35.88;;;;;;;7.48;71.42;101980.03;5091443;28;20412;-79
2024/01/26 09:36:52;;;;;;;49.97;28.70;;;;;;;7.74;70.12;101976.38;5093309;28;20047;-79
2024/01/26 09:39:47;;;;;;;66.20;36.03;;;;;;;7.90;70.28;101974.53;5092966;28;20047;-79
2024/01/26 09:42:39;;;;;;;54.58;31.73;;;;;;;8.20;68.53;101971.09;5096683;28;20047;-79
2024/01/26 09:45:31;;;;;;;50.50;30.73;;;;;;;8.42;68.25;101965.47;5078456;28;20067;-79
2024/01/26 09:48:25;;;;;;;46.80;27.15;;;;;;;8.70;67.67;101966.81;5091866;28;20043;-79
2024/01/26 09:51:20;;;;;;;37.55;22.77;;;;;;;8.93;65.41;101953.50;5095131;28;20055;-79
2024/01/26 09:54:18;;;;;;;36.63;23.17;;;;;;;9.19;64.65;101959.72;5092667;28;20039;-79
2024/01/26 09:57:13;;;;;;;41.03;25.90;;;;;;;9.57;62.88;101960.91;5092177;28;20349;-80
2024/01/26 10:00:08;;;;;;;39.63;25.23;;;;;;;9.56;62.99;101963.91;5093668;28;20043;-79
2024/01/26 10:02:58;;;;;;;;;;;;;;;9.42;64.05;101955.56;5092051;28;20043;-78
2024/01/26 10:05:53;;;;;;;56.30;37.17;;;;;;;9.09;67.32;101945.34;5095081;28;19916;-78
2024/01/26 10:08:47;;;;;;;64.13;39.05;;;;;;;8.86;67.25;101960.28;5098351;28;20405;-81
2024/01/26 10:11:42;;;;;;;59.03;36.97;;;;;;;9.79;65.47;101968.72;5096536;28;20081;-78
2024/01/26 10:14:36;;;;;;;55.47;35.72;;;;;;;11.53;58.52;101986.88;5098112;28;20055;-78
2024/01/26 10:17:31;;;;;;;68.80;41.40;;;;;;;11.81;58.03;101991.47;5095564;28;20496;-78
2024/01/26 10:20:26;;;;;;;67.07;42.67;;;;;;;11.53;58.98;101998.59;5100801;28;20036;-76
2024/01/26 10:23:15;;;;;;;62.58;40.25;;;;;;;11.32;58.55;102010.00;5098278;28;20040;-76
2024/01/26 10:26:10;;;;;;;70.30;42.47;;;;;;;11.59;58.29;102002.88;5095804;28;20400;-77
2024/01/26 10:29:05;;;;;;;60.73;38.67;;;;;;;14.02;51.34;102000.78;5099156;28;20032;-76
2024/01/26 10:31:57;;;;;;;46.88;28.75;;;;;;;14.99;48.19;101980.97;5097014;28;20270;-76
2024/01/26 10:34:52;;;;;;;52.83;34.88;;;;;;;17.15;44.27;101973.84;5103152;28;20044;-78
2024/01/26 10:37:48;;;;;;;48.55;32.55;;;;;;;18.37;40.64;101990.16;5099611;28;20036;-77
2024/01/26 10:40:44;;;;;;;51.63;32.83;;;;;;;17.12;43.07;101977.28;5095176;28;20040;-76
2024/01/26 10:43:40;;;;;;;49.20;32.47;;;;;;;15.39;47.46;101954.38;5099047;28;20040;-77
2024/01/26 10:46:34;;;;;;;35.80;23.73;;;;;;;15.18;47.43;101953.38;5098947;28;20047;-78
2024/01/26 10:49:27;;;;;;;62.53;33.65;;;;;;;16.32;45.48;101954.91;5102740;28;20043;-77
2024/01/26 10:52:29;;;;;;;46.25;32.10;;;;;;;18.24;41.32;101958.19;5099556;28;20044;-78
2024/01/26 10:55:26;;;;;;;48.67;31.95;;;;;;;17.75;41.98;101952.41;5094476;28;20047;-77
2024/01/26 10:58:20;;;;;;;52.45;31.92;;;;;;;16.79;44.08;101953.09;5093103;28;20036;-77
2024/01/26 11:01:14;;;;;;;48.33;31.53;;;;;;;16.01;46.40;101949.56;5092035;28;20048;-76
2024/01/26 11:04:05;;;;;;;48.22;32.47;;;;;;;16.12;46.33;101945.38;5095544;28;20048;-77
2024/01/26 11:06:58;;;;;;;39.20;27.58;;;;;;;16.01;46.04;101951.50;5092152;28;20031;-76
2024/01/26 11:09:50;;;;;;;44.97;32.53;;;;;;;16.49;45.23;101954.09;5096936;28;20036;-77
2024/01/26 11:12:45;;;;;;;50.05;34.42;;;;;;;17.19;42.71;101952.81;5100622;28;20044;-78
2024/01/26 11:15:40;;;;;;;47.10;30.45;;;;;;;17.78;40.81;101950.91;5091298;28;20036;-77
2024/01/26 11:18:38;;;;;;;46.03;31.92;;;;;;;16.29;43.72;101957.50;5090396;28;20036;-78
2024/01/26 11:21:44;;;;;;;47.90;31.92;;;;;;;17.26;40.85;101955.88;5093637;28;20032;-77
2024/01/26 11:24:39;;;;;;;46.95;32.65;;;;;;;18.07;40.74;101964.66;5093505;28;20044;-77
2024/01/26 11:27:33;;;;;;;49.42;34.47;;;;;;;16.71;43.25;101967.66;5082075;28;20404;-78
2024/01/26 11:30:28;;;;;;;57.38;37.38;;;;;;;17.67;41.82;101939.50;5092751;28;20500;-77
2024/01/26 11:33:26;;;;;;;51.50;35.13;;;;;;;17.82;40.62;101938.13;5090480;28;20036;-78
2024/01/26 11:36:24;;;;;;;56.75;36.10;;;;;;;18.42;39.75;101953.34;5088615;28;20044;-76
2024/01/26 11:39:15;;;;;;;60.65;37.58;;;;;;;21.60;34.27;101937.34;5093697;28;20613;-77
2024/01/26 11:42:12;;;;;;;49.75;32.10;;;;;;;21.01;33.43;101929.16;5090869;28;20032;-78
2024/01/26 11:45:17;;;;;;;50.58;35.17;;;;;;;19.45;37.23;101924.66;5086996;28;20044;-78
2024/01/26 11:48:11;;;;;;;45.53;34.67;;;;;;;17.24;41.60;101933.38;5092631;28;20036;-79
2024/01/26 11:51:05;;;;;;;49.63;32.13;;;;;;;16.01;44.68;101919.38;5088223;28;20400;-77
2024/01/26 11:53:59;;;;;;;51.83;33.13;;;;;;;14.48;47.99;101935.72;5091270;28;20039;-79
2024/01/26 11:56:59;;;;;;;60.63;39.83;;;;;;;13.89;50.06;101919.59;5088932;28;20044;-77
2024/01/26 11:59:53;;;;;;;74.20;41.42;;;;;;;14.04;49.27;101925.53;5091125;28;20639;-77
2024/01/26 12:02:48;;;;;;;64.30;45.07;;;;;;;14.38;48.78;101914.06;5094500;28;20036;-78
2024/01/26 12:05:43;;;;;;;46.72;32.50;;;;;;;14.85;47.32;101907.09;5096492;28;20282;-77
2024/01/26 12:08:38;;;;;;;46.50;31.23;;;;;;;14.98;47.22;101913.63;5092491;28;20397;-79
2024/01/26 12:11:32;;;;;;;62.67;37.67;;;;;;;15.09;46.73;101901.25;5095851;28;20044;-78
2024/01/26 12:14:27;;;;;;;44.42;29.40;;;;;;;14.83;47.45;101900.34;5093801;28;20043;-78
2024/01/26 12:17:21;;;;;;;56.75;34.53;;;;;;;14.61;47.39;101903.94;5090766;28;20036;-78
2024/01/26 12:20:16;;;;;;;72.15;40.17;;;;;;;14.27;48.51;101893.53;5080900;28;20335;-79
2024/01/26 12:23:16;;;;;;;57.85;37.53;;;;;;;14.37;48.08;101889.78;5092376;28;20052;-79
2024/01/26 12:26:12;;;;;;;57.17;36.53;;;;;;;14.71;47.54;101883.69;5095074;28;20032;-78
2024/01/26 12:29:07;;;;;;;60.20;35.70;;;;;;;14.42;47.98;101887.72;5093163;28;20031;-78
2024/01/26 12:32:04;;;;;;;49.13;30.17;;;;;;;13.91;49.32;101868.16;5096436;28;20040;-78
2024/01/26 12:34:59;;;;;;;61.10;40.50;;;;;;;13.98;50.03;101861.13;5094050;28;20262;-79
2024/01/26 12:37:54;;;;;;;58.70;38.03;;;;;;;14.38;48.81;101864.00;5091480;28;20036;-78
2024/01/26 12:40:49;;;;;;;47.73;30.47;;;;;;;14.23;49.36;101867.09;5095358;28;20040;-78
2024/01/26 12:43:43;;;;;;;57.07;37.33;;;;;;;13.76;51.24;101857.56;5092370;28;20274;-77
2024/01/26 12:46:35;;;;;;;56.43;37.83;;;;;;;13.12;53.11;101854.03;5094080;28;20266;-81
2024/01/26 12:49:31;;;;;;;67.68;43.30;;;;;;;12.94;53.90;101847.53;5094323;28;20040;-79
2024/01/26 12:52:26;;;;;;;66.78;41.38;;;;;;;12.59;54.79;101843.56;5090618;28;20032;-78
2024/01/26 12:55:20;;;;;;;67.17;42.00;;;;;;;12.50;55.69;101833.63;5089872;28;20429;-81
2024/01/26 12:58:10;;;;;;;68.38;42.83;;;;;;;12.07;57.39;101838.47;5082092;28;20056;-80
2024/01/26 13:01:05;;;;;;;73.60;42.58;;;;;;;12.09;57.08;101841.72;5085310;28;20040;-78
2024/01/26 13:03:59;;;;;;;55.13;35.60;;;;;;;11.67;58.80;101837.97;5091821;28;20032;-78
2024/01/26 13:06:54;;;;;;;67.40;42.70;;;;;;;11.31;60.55;101823.22;5086643;28;20048;-77
2024/01/26 13:09:49;;;;;;;55.30;36.53;;;;;;;10.99;61.08;101813.00;5093158;28;20048;-78
2024/01/26 13:12:43;;;;;;;69.97;43.97;;;;;;;10.92;61.55;101818.78;5082089;28;20282;-78
2024/01/26 13:15:38;;;;;;;53.53;33.50;;;;;;;10.83;61.54;101809.66;5087954;28;20048;-77
2024/01/26 13:18:32;;;;;;;66.53;40.60;;;;;;;10.73;62.04;101815.19;5091053;28;20044;-80